Time;durP1;ratioP1;P1;durP2;ratioP2;P2;SDS_P1;SDS_P2;PMS_P1;PMS_P2;Temp;Humidity;BMP_temperature;BMP_pressure;BME280_temperature;BME280_humidity;BME280_pressure;Samples;Min_cycle;Max_cycle;Signal;HPM_P1;HPM_P2
2023/04/23 00:01:38;;;;;;;2.05;1.85;;;;;;;;;;4992755;28;20195;-49
2023/04/23 00:04:05;;;;;;;2.17;1.80;;;;;;;;;;4994090;28;20197;-50
2023/04/23 00:06:32;;;;;;;1.77;1.60;;;;;;;;;;4993403;28;20631;-50
2023/04/23 00:09:00;;;;;;;3.95;1.92;;;;;;;;;;4993803;28;20207;-50
2023/04/23 00:11:26;;;;;;;1.88;1.77;;;;;;;;;;4993695;28;20545;-50
2023/04/23 00:13:52;;;;;;;2.10;1.90;;;;;;;;;;4997831;28;20192;-49
2023/04/23 00:16:19;;;;;;;2.33;2.00;;;;;;;;;;4997364;28;20565;-49
2023/04/23 00:18:45;;;;;;;1.75;1.65;;;;;;;;;;4996454;28;20184;-49
2023/04/23 00:21:11;;;;;;;2.35;1.70;;;;;;;;;;4997854;28;20209;-49
2023/04/23 00:23:38;;;;;;;2.63;1.88;;;;;;;;;;4998053;28;20188;-49
2023/04/23 00:26:04;;;;;;;2.28;1.85;;;;;;;;;;4995847;28;20212;-49
2023/04/23 00:28:29;;;;;;;3.25;2.03;;;;;;;;;;4996927;28;20507;-49
2023/04/23 00:30:55;;;;;;;2.47;1.95;;;;;;;;;;4996994;28;20264;-49
2023/04/23 00:33:21;;;;;;;1.90;1.80;;;;;;;;;;4997355;28;20193;-49
2023/04/23 00:35:47;;;;;;;1.75;1.65;;;;;;;;;;4996690;28;20185;-50
2023/04/23 00:38:13;;;;;;;1.90;1.63;;;;;;;;;;4997033;28;20189;-50
2023/04/23 00:40:40;;;;;;;1.92;1.70;;;;;;;;;;4996663;28;20208;-49
2023/04/23 00:43:07;;;;;;;2.63;1.67;;;;;;;;;;4996455;28;20602;-49
2023/04/23 00:45:33;;;;;;;1.90;1.60;;;;;;;;;;4996935;28;20185;-50
2023/04/23 00:47:59;;;;;;;1.92;1.80;;;;;;;;;;4996528;28;20441;-49
2023/04/23 00:50:25;;;;;;;2.10;1.90;;;;;;;;;;4997086;28;20591;-50
2023/04/23 00:52:51;;;;;;;1.75;1.60;;;;;;;;;;4995522;28;20208;-49
2023/04/23 00:55:19;;;;;;;2.53;1.70;;;;;;;;;;4995741;28;20224;-49
2023/04/23 00:57:46;;;;;;;2.22;1.85;;;;;;;;;;4995602;28;20584;-49
2023/04/23 01:00:12;;;;;;;1.70;1.60;;;;;;;;;;4996820;28;20224;-49
2023/04/23 01:02:39;;;;;;;2.00;1.80;;;;;;;;;;4996557;28;20467;-49
2023/04/23 01:05:06;;;;;;;1.40;1.27;;;;;;;;;;4996880;28;20215;-50
2023/04/23 01:07:34;;;;;;;2.08;1.52;;;;;;;;;;4996158;28;20312;-49
2023/04/23 01:10:00;;;;;;;1.92;1.77;;;;;;;;;;4996613;28;20636;-49
2023/04/23 01:12:26;;;;;;;1.83;1.73;;;;;;;;;;4995812;28;20268;-50
2023/04/23 01:14:52;;;;;;;2.10;1.90;;;;;;;;;;4996419;28;20196;-50
2023/04/23 01:17:18;;;;;;;1.70;1.60;;;;;;;;;;4995398;28;20592;-49
2023/04/23 01:19:44;;;;;;;2.17;1.80;;;;;;;;;;4996226;28;20216;-49
2023/04/23 01:22:11;;;;;;;1.75;1.50;;;;;;;;;;4996462;28;20616;-48
2023/04/23 01:24:38;;;;;;;1.70;1.60;;;;;;;;;;4995732;28;20190;-49
2023/04/23 01:27:04;;;;;;;1.85;1.73;;;;;;;;;;4996211;28;20192;-50
2023/04/23 01:29:30;;;;;;;2.17;1.63;;;;;;;;;;4995925;28;20189;-50
2023/04/23 01:31:57;;;;;;;1.73;1.60;;;;;;;;;;4994947;28;20181;-50
2023/04/23 01:34:22;;;;;;;1.60;1.50;;;;;;;;;;4996953;28;20200;-49
2023/04/23 01:36:49;;;;;;;2.15;1.73;;;;;;;;;;4996521;28;20486;-49
2023/04/23 01:39:15;;;;;;;1.80;1.60;;;;;;;;;;4996154;28;20193;-50
2023/04/23 01:41:41;;;;;;;1.77;1.60;;;;;;;;;;4995938;28;20173;-50
2023/04/23 01:44:07;;;;;;;1.45;1.35;;;;;;;;;;4994560;28;20193;-49
2023/04/23 01:46:33;;;;;;;1.55;1.45;;;;;;;;;;4995189;28;20582;-49
2023/04/23 01:48:59;;;;;;;1.50;1.40;;;;;;;;;;4995587;28;20615;-49
2023/04/23 01:51:26;;;;;;;1.52;1.40;;;;;;;;;;4978841;28;20181;-50
2023/04/23 01:53:52;;;;;;;1.58;1.48;;;;;;;;;;4995835;28;20193;-49
2023/04/23 01:56:20;;;;;;;1.70;1.60;;;;;;;;;;4995425;28;20208;-50
2023/04/23 01:58:46;;;;;;;1.80;1.70;;;;;;;;;;4995679;28;20181;-50
2023/04/23 02:01:12;;;;;;;2.28;2.00;;;;;;;;;;4995252;28;20612;-50
2023/04/23 02:03:38;;;;;;;1.60;1.48;;;;;;;;;;4996006;28;20243;-50
2023/04/23 02:06:04;;;;;;;3.72;1.40;;;;;;;;;;4994422;28;20192;-50
2023/04/23 02:08:30;;;;;;;1.55;1.45;;;;;;;;;;4995786;28;20841;-50
2023/04/23 02:10:56;;;;;;;1.58;1.48;;;;;;;;;;4995388;28;20558;-49
2023/04/23 02:13:22;;;;;;;1.92;1.83;;;;;;;;;;4994773;28;20200;-49
2023/04/23 02:15:48;;;;;;;1.90;1.80;;;;;;;;;;4994472;28;20185;-49
2023/04/23 02:18:14;;;;;;;1.65;1.55;;;;;;;;;;4995661;28;20189;-50
2023/04/23 02:20:40;;;;;;;1.50;1.40;;;;;;;;;;4995687;28;20204;-49
2023/04/23 02:23:09;;;;;;;1.73;1.63;;;;;;;;;;4995720;28;20182;-50
2023/04/23 02:25:37;;;;;;;2.10;1.90;;;;;;;;;;4994036;28;20181;-49
2023/04/23 02:28:05;;;;;;;2.00;1.80;;;;;;;;;;4987010;28;20177;-49
2023/04/23 02:30:31;;;;;;;1.58;1.48;;;;;;;;;;4995682;28;20173;-49
2023/04/23 02:32:57;;;;;;;1.77;1.45;;;;;;;;;;4995041;28;20189;-49
2023/04/23 02:35:23;;;;;;;1.55;1.45;;;;;;;;;;4994822;28;20189;-49
2023/04/23 02:37:49;;;;;;;1.88;1.65;;;;;;;;;;4992258;28;20192;-50
2023/04/23 02:40:15;;;;;;;1.70;1.60;;;;;;;;;;4994202;28;20209;-49
2023/04/23 02:42:41;;;;;;;1.60;1.50;;;;;;;;;;4993737;28;20181;-50
2023/04/23 02:45:07;;;;;;;1.45;1.35;;;;;;;;;;4990742;28;20185;-50
2023/04/23 02:47:33;;;;;;;2.08;1.63;;;;;;;;;;4993789;28;20428;-49
2023/04/23 02:50:02;;;;;;;1.65;1.55;;;;;;;;;;4995211;28;20191;-50
2023/04/23 02:52:27;;;;;;;2.15;1.73;;;;;;;;;;4995168;28;20193;-49
2023/04/23 02:54:53;;;;;;;1.80;1.70;;;;;;;;;;4994717;28;20228;-49
2023/04/23 02:57:20;;;;;;;1.63;1.52;;;;;;;;;;4993743;28;20225;-49
2023/04/23 02:59:46;;;;;;;1.45;1.27;;;;;;;;;;4994042;28;20295;-50
2023/04/23 03:02:11;;;;;;;1.50;1.40;;;;;;;;;;4994596;28;20285;-49
2023/04/23 03:04:38;;;;;;;1.92;1.58;;;;;;;;;;4994775;28;20182;-50
2023/04/23 03:07:04;;;;;;;1.50;1.40;;;;;;;;;;4994835;28;20174;-49
2023/04/23 03:09:30;;;;;;;1.60;1.45;;;;;;;;;;4992960;28;20213;-49
2023/04/23 03:11:56;;;;;;;1.60;1.50;;;;;;;;;;4993975;28;20193;-49
2023/04/23 03:14:22;;;;;;;1.40;1.30;;;;;;;;;;4994187;28;20189;-49
2023/04/23 03:16:48;;;;;;;1.50;1.40;;;;;;;;;;4993916;28;20195;-49
2023/04/23 03:19:14;;;;;;;1.80;1.70;;;;;;;;;;4993863;28;20193;-49
2023/04/23 03:21:40;;;;;;;1.55;1.45;;;;;;;;;;4994181;28;20204;-50
2023/04/23 03:24:06;;;;;;;1.50;1.40;;;;;;;;;;4994326;28;20450;-49
2023/04/23 03:26:33;;;;;;;1.30;1.20;;;;;;;;;;4992371;28;20192;-49
2023/04/23 03:28:59;;;;;;;1.55;1.45;;;;;;;;;;4994051;28;20201;-49
2023/04/23 03:31:25;;;;;;;1.27;1.20;;;;;;;;;;4994073;28;20595;-50
2023/04/23 03:33:51;;;;;;;2.17;1.60;;;;;;;;;;4983216;28;20280;-49
2023/04/23 03:36:17;;;;;;;1.50;1.40;;;;;;;;;;4988339;28;20269;-49
2023/04/23 03:38:43;;;;;;;1.45;1.35;;;;;;;;;;4991809;28;20192;-49
2023/04/23 03:41:09;;;;;;;1.58;1.48;;;;;;;;;;4993643;28;20213;-50
2023/04/23 03:43:35;;;;;;;1.50;1.40;;;;;;;;;;4994297;28;20185;-49
2023/04/23 03:46:01;;;;;;;1.58;1.48;;;;;;;;;;4993888;28;20235;-49
2023/04/23 03:48:27;;;;;;;1.55;1.45;;;;;;;;;;4993717;28;20455;-49
2023/04/23 03:50:53;;;;;;;1.40;1.30;;;;;;;;;;4993559;28;20192;-49
2023/04/23 03:53:18;;;;;;;1.20;1.10;;;;;;;;;;4993306;28;20275;-50
2023/04/23 03:55:44;;;;;;;1.40;1.30;;;;;;;;;;4993802;28;20308;-49
2023/04/23 03:58:10;;;;;;;1.35;1.25;;;;;;;;;;4992859;28;20272;-49
2023/04/23 04:00:36;;;;;;;1.42;1.33;;;;;;;;;;4994145;28;20666;-49
2023/04/23 04:03:03;;;;;;;1.40;1.30;;;;;;;;;;4992847;28;20192;-49
2023/04/23 04:05:28;;;;;;;1.60;1.50;;;;;;;;;;4994037;28;20176;-49
2023/04/23 04:07:54;;;;;;;1.58;1.48;;;;;;;;;;4993566;28;20173;-50
2023/04/23 04:10:20;;;;;;;1.90;1.40;;;;;;;;;;4993654;28;20579;-49
2023/04/23 04:12:47;;;;;;;1.50;1.40;;;;;;;;;;4993055;28;20189;-49
2023/04/23 04:15:13;;;;;;;1.77;1.45;;;;;;;;;;4993962;28;20189;-49
2023/04/23 04:17:39;;;;;;;1.40;1.30;;;;;;;;;;4993176;28;20189;-50
2023/04/23 04:20:07;;;;;;;1.52;1.42;;;;;;;;;;4993824;28;20197;-49
2023/04/23 04:22:33;;;;;;;1.63;1.30;;;;;;;;;;4993097;28;20208;-50
2023/04/23 04:24:59;;;;;;;1.45;1.35;;;;;;;;;;4992482;28;20181;-50
2023/04/23 04:27:25;;;;;;;1.40;1.30;;;;;;;;;;4992342;28;20524;-49
2023/04/23 04:29:51;;;;;;;1.48;1.38;;;;;;;;;;4994238;28;20247;-49
2023/04/23 04:32:17;;;;;;;1.50;1.38;;;;;;;;;;4994300;28;20189;-49
2023/04/23 04:34:42;;;;;;;1.58;1.48;;;;;;;;;;4993627;28;20219;-49
2023/04/23 04:37:10;;;;;;;1.67;1.58;;;;;;;;;;4992445;28;20343;-49
2023/04/23 04:39:36;;;;;;;1.58;1.48;;;;;;;;;;4993568;28;20205;-49
2023/04/23 04:42:02;;;;;;;1.40;1.30;;;;;;;;;;4993026;28;20194;-49
2023/04/23 04:44:29;;;;;;;1.50;1.40;;;;;;;;;;4993712;28;20196;-49
2023/04/23 04:46:55;;;;;;;2.30;1.70;;;;;;;;;;4993344;28;20439;-49
2023/04/23 04:49:21;;;;;;;1.30;1.20;;;;;;;;;;4993408;28;20188;-49
2023/04/23 04:51:47;;;;;;;1.50;1.40;;;;;;;;;;4993396;28;20181;-49
2023/04/23 04:54:13;;;;;;;1.40;1.30;;;;;;;;;;4993181;28;20339;-49
2023/04/23 04:56:39;;;;;;;2.75;1.90;;;;;;;;;;4993422;28;20263;-50
2023/04/23 04:59:05;;;;;;;8.50;2.50;;;;;;;;;;4996358;28;20188;-50
2023/04/23 05:01:32;;;;;;;10.35;2.78;;;;;;;;;;4996759;28;20185;-50
2023/04/23 05:03:58;;;;;;;10.25;2.90;;;;;;;;;;4996343;28;20185;-50
2023/04/23 05:06:24;;;;;;;5.57;3.20;;;;;;;;;;4996379;28;20204;-51
2023/04/23 05:08:50;;;;;;;9.15;3.05;;;;;;;;;;4996037;28;20862;-51
2023/04/23 05:11:17;;;;;;;3.67;2.45;;;;;;;;;;4997060;28;20204;-50
2023/04/23 05:13:46;;;;;;;6.20;2.95;;;;;;;;;;4996287;28;20213;-50
2023/04/23 05:16:12;;;;;;;7.88;2.38;;;;;;;;;;4997009;28;20239;-50
2023/04/23 05:18:39;;;;;;;4.00;2.05;;;;;;;;;;4995653;28;20193;-50
2023/04/23 05:21:05;;;;;;;6.63;2.10;;;;;;;;;;4996081;28;20585;-50
2023/04/23 05:23:31;;;;;;;4.88;2.13;;;;;;;;;;4996508;28;20181;-51
2023/04/23 05:25:57;;;;;;;4.57;2.22;;;;;;;;;;4995444;28;20204;-50
2023/04/23 05:28:23;;;;;;;7.03;2.53;;;;;;;;;;4996166;28;20185;-50
2023/04/23 05:30:49;;;;;;;4.82;2.50;;;;;;;;;;4994567;28;20185;-50
2023/04/23 05:33:16;;;;;;;4.00;2.10;;;;;;;;;;4997145;28;20231;-51
2023/04/23 05:35:42;;;;;;;2.85;2.13;;;;;;;;;;4995525;28;20193;-50
2023/04/23 05:38:08;;;;;;;3.95;2.30;;;;;;;;;;4996638;28;20665;-50
2023/04/23 05:40:34;;;;;;;5.50;2.40;;;;;;;;;;4996225;28;20219;-51
2023/04/23 05:43:00;;;;;;;2.65;2.20;;;;;;;;;;4996078;28;20223;-50
2023/04/23 05:45:27;;;;;;;5.28;2.47;;;;;;;;;;4994801;28;20185;-50
2023/04/23 05:47:53;;;;;;;2.33;2.00;;;;;;;;;;4995151;28;20209;-51
2023/04/23 05:50:19;;;;;;;4.28;2.25;;;;;;;;;;4996635;28;20212;-50
2023/04/23 05:52:45;;;;;;;4.82;2.40;;;;;;;;;;4996340;28;20201;-50
2023/04/23 05:55:11;;;;;;;4.45;2.40;;;;;;;;;;4995454;28;20209;-50
2023/04/23 05:57:37;;;;;;;3.75;2.13;;;;;;;;;;4995171;28;20199;-50
2023/04/23 06:00:04;;;;;;;3.63;2.10;;;;;;;;;;4995674;28;20208;-51
2023/04/23 06:02:32;;;;;;;3.72;2.35;;;;;;;;;;4995390;28;20223;-50
2023/04/23 06:04:58;;;;;;;4.47;1.83;;;;;;;;;;4996544;28;20173;-50
2023/04/23 06:07:24;;;;;;;3.50;2.22;;;;;;;;;;4995746;28;20217;-51
2023/04/23 06:09:50;;;;;;;4.10;2.25;;;;;;;;;;4994001;28;20177;-50
2023/04/23 06:12:16;;;;;;;5.55;1.98;;;;;;;;;;4994236;28;20195;-50
2023/04/23 06:14:42;;;;;;;2.78;1.90;;;;;;;;;;4995614;28;20346;-50
2023/04/23 06:17:08;;;;;;;3.08;1.98;;;;;;;;;;4995677;28;20189;-50
2023/04/23 06:19:33;;;;;;;3.90;1.90;;;;;;;;;;4993965;28;20212;-50
2023/04/23 06:21:59;;;;;;;6.85;2.03;;;;;;;;;;4995086;28;20464;-50
2023/04/23 06:24:26;;;;;;;6.18;1.90;;;;;;;;;;4994601;28;20576;-51
2023/04/23 06:26:52;;;;;;;2.20;2.00;;;;;;;;;;4994881;28;20320;-50
2023/04/23 06:29:17;;;;;;;5.70;2.15;;;;;;;;;;4993886;28;20303;-51
2023/04/23 06:31:43;;;;;;;3.85;2.22;;;;;;;;;;4995964;28;20212;-50
2023/04/23 06:34:09;;;;;;;4.60;2.03;;;;;;;;;;4993387;28;20223;-50
2023/04/23 06:36:35;;;;;;;3.58;2.10;;;;;;;;;;4994956;28;20185;-50
2023/04/23 06:39:01;;;;;;;3.03;1.98;;;;;;;;;;4994257;28;20184;-50
2023/04/23 06:41:27;;;;;;;4.43;2.03;;;;;;;;;;4994737;28;20216;-50
2023/04/23 06:43:53;;;;;;;3.85;1.83;;;;;;;;;;4995231;28;20298;-50
2023/04/23 06:46:19;;;;;;;2.20;1.90;;;;;;;;;;4994502;28;20218;-51
2023/04/23 06:48:45;;;;;;;3.75;1.77;;;;;;;;;;4994486;28;20271;-50
2023/04/23 06:51:11;;;;;;;3.05;1.60;;;;;;;;;;4994325;28;20189;-50
2023/04/23 06:53:37;;;;;;;4.07;1.90;;;;;;;;;;4994068;28;20196;-52
2023/04/23 06:56:03;;;;;;;3.45;1.75;;;;;;;;;;4994703;28;20197;-52
2023/04/23 06:58:32;;;;;;;4.60;1.77;;;;;;;;;;4994502;28;20185;-52
2023/04/23 07:00:59;;;;;;;5.18;1.90;;;;;;;;;;4993669;28;20220;-52
2023/04/23 07:03:25;;;;;;;4.25;1.70;;;;;;;;;;4993322;28;20193;-52
2023/04/23 07:05:51;;;;;;;2.85;1.80;;;;;;;;;;4994194;28;20219;-52
2023/04/23 07:08:17;;;;;;;8.88;2.33;;;;;;;;;;4993242;28;20213;-53
2023/04/23 07:10:43;;;;;;;2.85;2.30;;;;;;;;;;4993578;28;20189;-53
2023/04/23 07:13:09;;;;;;;5.13;2.10;;;;;;;;;;4994563;28;20220;-52
2023/04/23 07:15:36;;;;;;;4.32;1.98;;;;;;;;;;4993634;28;20181;-52
2023/04/23 07:18:02;;;;;;;6.07;2.30;;;;;;;;;;4994151;28;20557;-52
2023/04/23 07:20:28;;;;;;;6.65;2.00;;;;;;;;;;4994972;28;20212;-52
2023/04/23 07:22:54;;;;;;;6.00;2.00;;;;;;;;;;4994742;28;20188;-52
2023/04/23 07:25:21;;;;;;;7.35;1.80;;;;;;;;;;4992988;28;20193;-52
2023/04/23 07:27:47;;;;;;;7.25;2.08;;;;;;;;;;4994547;28;20717;-52
2023/04/23 07:30:13;;;;;;;5.18;1.98;;;;;;;;;;4993347;28;20192;-52
2023/04/23 07:32:39;;;;;;;4.35;1.85;;;;;;;;;;4994281;28;20263;-53
2023/04/23 07:35:06;;;;;;;4.15;2.00;;;;;;;;;;4993701;28;20277;-51
2023/04/23 07:37:31;;;;;;;3.80;2.75;;;;;;;;;;4994175;28;20181;-51
2023/04/23 07:39:57;;;;;;;4.40;1.98;;;;;;;;;;4992867;28;20252;-51
2023/04/23 07:42:23;;;;;;;7.50;1.80;;;;;;;;;;4994319;28;20189;-51
2023/04/23 07:44:49;;;;;;;7.20;1.63;;;;;;;;;;4993001;28;20189;-51
2023/04/23 07:47:15;;;;;;;7.18;1.80;;;;;;;;;;4993346;28;20193;-51
2023/04/23 07:49:41;;;;;;;4.22;1.60;;;;;;;;;;4993725;28;20208;-51
2023/04/23 07:52:07;;;;;;;1.90;1.70;;;;;;;;;;4994615;28;20469;-51
2023/04/23 07:54:33;;;;;;;4.75;1.50;;;;;;;;;;4993607;28;20239;-51
2023/04/23 07:57:00;;;;;;;2.50;1.60;;;;;;;;;;4994050;28;20703;-51
2023/04/23 07:59:25;;;;;;;2.95;1.70;;;;;;;;;;4991286;28;20186;-52
2023/04/23 08:01:51;;;;;;;6.20;1.85;;;;;;;;;;4993557;28;20207;-51
2023/04/23 08:04:17;;;;;;;2.95;1.50;;;;;;;;;;4993761;28;20561;-51
2023/04/23 08:06:43;;;;;;;3.55;1.27;;;;;;;;;;4993926;28;20280;-51
2023/04/23 08:09:09;;;;;;;3.70;1.13;;;;;;;;;;4993389;28;20223;-51
2023/04/23 08:11:35;;;;;;;3.63;1.58;;;;;;;;;;4993797;28;20185;-51
2023/04/23 08:14:01;;;;;;;4.30;1.60;;;;;;;;;;4993506;28;20197;-51
2023/04/23 08:16:28;;;;;;;2.58;1.40;;;;;;;;;;4993954;28;20572;-51
2023/04/23 08:18:54;;;;;;;4.45;1.40;;;;;;;;;;4993684;28;20189;-51
2023/04/23 08:21:21;;;;;;;4.40;1.80;;;;;;;;;;4993247;28;20223;-51
2023/04/23 08:23:47;;;;;;;2.45;1.60;;;;;;;;;;4993746;28;20293;-51
2023/04/23 08:26:13;;;;;;;2.05;1.50;;;;;;;;;;4992583;28;20224;-51
2023/04/23 08:28:39;;;;;;;2.92;1.60;;;;;;;;;;4993233;28;20499;-51
2023/04/23 08:31:04;;;;;;;3.17;1.40;;;;;;;;;;4993974;28;20182;-51
2023/04/23 08:33:30;;;;;;;2.45;1.50;;;;;;;;;;4995956;28;20189;-51
2023/04/23 08:35:56;;;;;;;2.17;1.30;;;;;;;;;;4997371;28;20208;-51
2023/04/23 08:38:22;;;;;;;1.92;1.30;;;;;;;;;;4997161;28;20227;-51
2023/04/23 08:40:48;;;;;;;1.38;1.27;;;;;;;;;;4997756;28;20227;-51
2023/04/23 08:43:16;;;;;;;3.15;1.60;;;;;;;;;;4996642;28;20193;-51
2023/04/23 08:45:44;;;;;;;1.45;1.27;;;;;;;;;;4997000;28;20185;-51
2023/04/23 08:48:10;;;;;;;2.55;1.33;;;;;;;;;;4998080;28;20192;-51
2023/04/23 08:50:38;;;;;;;1.80;1.40;;;;;;;;;;4997426;28;20193;-52
2023/04/23 08:53:05;;;;;;;3.75;1.80;;;;;;;;;;4996725;28;20612;-51
2023/04/23 08:55:33;;;;;;;1.55;1.40;;;;;;;;;;4996554;28;20480;-51
2023/04/23 08:57:59;;;;;;;2.00;1.58;;;;;;;;;;4996210;28;20178;-51
2023/04/23 09:00:25;;;;;;;1.90;1.48;;;;;;;;;;4997076;28;20221;-51
2023/04/23 09:02:51;;;;;;;1.92;1.52;;;;;;;;;;4997730;28;20185;-51
2023/04/23 09:05:17;;;;;;;2.05;1.48;;;;;;;;;;4994977;28;20188;-52
2023/04/23 09:07:43;;;;;;;4.00;1.30;;;;;;;;;;4995751;28;20189;-51
2023/04/23 09:10:11;;;;;;;4.28;1.70;;;;;;;;;;4996785;28;20447;-51
2023/04/23 09:12:38;;;;;;;2.03;1.60;;;;;;;;;;4996475;28;20181;-51
2023/04/23 09:15:11;;;;;;;7.70;1.92;;;;;;;;;;4996587;28;20185;-51
2023/04/23 09:17:41;;;;;;;2.10;1.70;;;;;;;;;;4996122;28;20181;-51
2023/04/23 09:20:08;;;;;;;5.55;2.47;;;;;;;;;;4990972;28;20205;-51
2023/04/23 09:22:38;;;;;;;2.22;1.88;;;;;;;;;;4995912;28;20269;-51
2023/04/23 09:25:04;;;;;;;2.63;1.80;;;;;;;;;;4995386;28;20264;-52
2023/04/23 09:27:30;;;;;;;5.05;1.90;;;;;;;;;;4996180;28;20224;-51
2023/04/23 09:29:58;;;;;;;6.15;1.80;;;;;;;;;;4996598;28;20268;-51
2023/04/23 09:32:31;;;;;;;4.72;1.90;;;;;;;;;;4997320;28;20185;-51
2023/04/23 09:34:57;;;;;;;3.10;2.05;;;;;;;;;;4995931;28;20213;-52
2023/04/23 09:37:25;;;;;;;2.78;1.80;;;;;;;;;;4991986;28;20232;-51
2023/04/23 09:39:54;;;;;;;3.47;1.70;;;;;;;;;;4997033;28;20508;-51
2023/04/23 09:42:22;;;;;;;3.30;1.90;;;;;;;;;;4995504;28;20236;-52
2023/04/23 09:44:55;;;;;;;4.18;1.80;;;;;;;;;;4993559;28;20189;-52
2023/04/23 09:47:21;;;;;;;5.78;2.03;;;;;;;;;;4995911;28;20305;-52
2023/04/23 09:49:48;;;;;;;2.38;2.15;;;;;;;;;;4996520;28;20511;-52
2023/04/23 09:52:14;;;;;;;5.07;2.30;;;;;;;;;;4996690;28;20193;-52
2023/04/23 09:54:40;;;;;;;3.42;2.10;;;;;;;;;;4994563;28;20265;-52
2023/04/23 09:57:07;;;;;;;4.22;2.30;;;;;;;;;;4995991;28;20192;-52
2023/04/23 09:59:37;;;;;;;3.75;2.40;;;;;;;;;;4993009;28;20185;-52
2023/04/23 10:02:06;;;;;;;2.50;2.00;;;;;;;;;;4996002;28;20204;-52
2023/04/23 10:04:33;;;;;;;3.50;2.15;;;;;;;;;;4995324;28;20181;-52
2023/04/23 10:07:00;;;;;;;4.93;2.83;;;;;;;;;;4996177;28;20189;-51
2023/04/23 10:09:27;;;;;;;3.53;2.50;;;;;;;;;;4994882;28;20177;-51
2023/04/23 10:11:54;;;;;;;2.75;2.20;;;;;;;;;;4996537;28;20193;-51
2023/04/23 10:14:21;;;;;;;5.03;2.60;;;;;;;;;;4995675;28;20181;-51
2023/04/23 10:16:47;;;;;;;2.55;2.30;;;;;;;;;;4994892;28;20181;-51
2023/04/23 10:19:17;;;;;;;4.55;2.40;;;;;;;;;;4995007;28;20196;-51
2023/04/23 10:21:44;;;;;;;3.65;2.67;;;;;;;;;;4992920;28;20279;-52
2023/04/23 10:24:10;;;;;;;3.97;2.63;;;;;;;;;;4995191;28;20200;-52
2023/04/23 10:26:41;;;;;;;4.93;2.40;;;;;;;;;;4994334;28;20177;-51
2023/04/23 10:29:09;;;;;;;3.35;2.15;;;;;;;;;;4994841;28;20439;-51
2023/04/23 10:31:35;;;;;;;4.20;2.40;;;;;;;;;;4995935;28;20185;-51
2023/04/23 10:34:04;;;;;;;5.38;2.30;;;;;;;;;;4995349;28;20193;-51
2023/04/23 10:36:30;;;;;;;4.90;2.63;;;;;;;;;;4989971;28;20181;-51
2023/04/23 10:38:59;;;;;;;3.78;2.33;;;;;;;;;;4994096;28;20267;-51
2023/04/23 10:41:28;;;;;;;5.15;2.38;;;;;;;;;;4995104;28;20205;-51
2023/04/23 10:43:54;;;;;;;5.30;2.60;;;;;;;;;;4995006;28;20188;-51
2023/04/23 10:46:32;;;;;;;5.85;2.78;;;;;;;;;;4994718;28;20453;-51
2023/04/23 10:49:06;;;;;;;3.75;2.47;;;;;;;;;;4995066;28;20181;-51
2023/04/23 10:51:35;;;;;;;9.40;4.20;;;;;;;;;;4994563;28;20288;-51
2023/04/23 10:54:04;;;;;;;255.35;61.08;;;;;;;;;;4994692;28;20217;-51
2023/04/23 10:56:31;;;;;;;283.25;62.47;;;;;;;;;;4993874;28;20959;-51
2023/04/23 10:58:57;;;;;;;155.02;37.33;;;;;;;;;;4995033;28;20185;-51
2023/04/23 11:01:24;;;;;;;83.10;23.63;;;;;;;;;;4994256;28;20220;-51
2023/04/23 11:03:51;;;;;;;69.93;17.10;;;;;;;;;;4995204;28;20178;-51
2023/04/23 11:06:42;;;;;;;48.47;13.55;;;;;;;;;;4993710;28;20290;-51
2023/04/23 11:09:26;;;;;;;44.50;14.10;;;;;;;;;;4983843;28;20189;-51
2023/04/23 11:11:54;;;;;;;44.15;14.07;;;;;;;;;;4993324;28;20287;-51
2023/04/23 11:14:20;;;;;;;41.95;12.30;;;;;;;;;;4994272;28;20177;-51
2023/04/23 11:16:48;;;;;;;31.98;10.05;;;;;;;;;;4994736;28;20246;-51
2023/04/23 11:19:14;;;;;;;30.55;9.25;;;;;;;;;;4991296;28;20204;-51
2023/04/23 11:22:00;;;;;;;25.58;8.70;;;;;;;;;;4994320;28;20215;-51
2023/04/23 11:24:29;;;;;;;24.42;9.25;;;;;;;;;;4990875;28;20185;-51
2023/04/23 11:26:55;;;;;;;29.13;9.98;;;;;;;;;;4994295;28;20172;-51
2023/04/23 11:29:22;;;;;;;25.45;8.32;;;;;;;;;;4994006;28;20215;-51
2023/04/23 11:31:48;;;;;;;27.15;9.48;;;;;;;;;;4994403;28;20173;-51
2023/04/23 11:34:15;;;;;;;25.20;8.90;;;;;;;;;;4992153;28;20549;-51
2023/04/23 11:36:42;;;;;;;27.70;8.85;;;;;;;;;;4994383;28;20173;-51
2023/04/23 11:39:09;;;;;;;19.33;7.40;;;;;;;;;;4994283;28;20263;-51
2023/04/23 11:41:35;;;;;;;22.02;7.15;;;;;;;;;;4994132;28;20589;-51
2023/04/23 11:44:01;;;;;;;28.05;8.45;;;;;;;;;;4994446;28;20243;-51
2023/04/23 11:46:27;;;;;;;20.73;8.05;;;;;;;;;;4992521;28;20196;-51
2023/04/23 11:48:53;;;;;;;29.17;9.32;;;;;;;;;;4993712;28;20271;-51
2023/04/23 11:51:25;;;;;;;22.23;8.20;;;;;;;;;;4994279;28;20671;-51
2023/04/23 11:53:51;;;;;;;21.92;7.85;;;;;;;;;;4994718;28;20311;-51
2023/04/23 11:56:17;;;;;;;24.23;7.57;;;;;;;;;;4992901;28;20193;-51
2023/04/23 11:58:43;;;;;;;20.70;6.65;;;;;;;;;;4994098;28;20204;-51
2023/04/23 12:01:12;;;;;;;12.75;5.45;;;;;;;;;;4992415;28;20488;-51
2023/04/23 12:03:38;;;;;;;7.97;3.50;;;;;;;;;;4989886;28;20206;-50
2023/04/23 12:06:05;;;;;;;13.73;4.93;;;;;;;;;;4993498;28;20526;-51
2023/04/23 12:08:34;;;;;;;9.98;2.88;;;;;;;;;;4997151;28;20192;-51
2023/04/23 12:11:01;;;;;;;2.88;1.80;;;;;;;;;;4997194;28;20187;-51
2023/04/23 12:13:32;;;;;;;2.92;1.70;;;;;;;;;;4997973;28;20212;-52
2023/04/23 12:16:04;;;;;;;2.08;1.52;;;;;;;;;;4997453;28;20268;-53
2023/04/23 12:18:31;;;;;;;2.08;1.58;;;;;;;;;;4997085;28;20193;-52
2023/04/23 12:21:11;;;;;;;1.42;1.15;;;;;;;;;;4997891;28;20215;-52
2023/04/23 12:23:38;;;;;;;4.50;1.90;;;;;;;;;;4998626;28;20211;-53
2023/04/23 12:26:05;;;;;;;4.38;2.00;;;;;;;;;;4996623;28;20549;-53
2023/04/23 12:28:31;;;;;;;1.88;1.67;;;;;;;;;;4997201;28;20446;-53
2023/04/23 12:31:01;;;;;;;3.38;1.90;;;;;;;;;;4997323;28;20188;-53
2023/04/23 12:33:30;;;;;;;2.88;1.80;;;;;;;;;;4997486;28;20211;-53
2023/04/23 12:35:56;;;;;;;3.40;1.60;;;;;;;;;;4996951;28;20330;-53
2023/04/23 12:38:29;;;;;;;1.90;1.70;;;;;;;;;;4997443;28;20189;-53
2023/04/23 12:41:00;;;;;;;1.95;1.40;;;;;;;;;;4996289;28;20228;-53
2023/04/23 12:43:26;;;;;;;2.30;1.52;;;;;;;;;;4997200;28;20182;-53
2023/04/23 12:45:54;;;;;;;1.70;1.60;;;;;;;;;;4997171;28;20192;-53
2023/04/23 12:48:20;;;;;;;1.50;1.40;;;;;;;;;;4996555;28;20189;-53
2023/04/23 12:50:46;;;;;;;1.38;1.27;;;;;;;;;;4997073;28;20243;-53
2023/04/23 12:53:12;;;;;;;1.00;1.00;;;;;;;;;;4997450;28;20193;-53
2023/04/23 12:55:38;;;;;;;1.30;1.20;;;;;;;;;;4994399;28;20224;-53
2023/04/23 12:58:04;;;;;;;1.00;1.00;;;;;;;;;;4995757;28;20340;-53
2023/04/23 13:00:30;;;;;;;1.60;1.20;;;;;;;;;;4996554;28;20291;-53
2023/04/23 13:02:56;;;;;;;1.15;1.00;;;;;;;;;;4997090;28;20549;-53
2023/04/23 13:05:23;;;;;;;1.23;1.20;;;;;;;;;;4996189;28;20205;-53
2023/04/23 13:07:49;;;;;;;1.13;1.05;;;;;;;;;;4994334;28;20232;-53
2023/04/23 13:10:15;;;;;;;2.58;1.10;;;;;;;;;;4996199;28;20280;-53
2023/04/23 13:12:41;;;;;;;1.38;1.27;;;;;;;;;;4997713;28;20200;-53
2023/04/23 13:15:08;;;;;;;1.55;1.45;;;;;;;;;;4996970;28;20189;-53
2023/04/23 13:17:34;;;;;;;2.35;1.30;;;;;;;;;;4995753;28;20200;-53
2023/04/23 13:19:59;;;;;;;1.73;1.60;;;;;;;;;;4995965;28;20335;-53
2023/04/23 13:22:27;;;;;;;1.60;1.50;;;;;;;;;;4997227;28;20181;-53
2023/04/23 13:24:55;;;;;;;1.40;1.30;;;;;;;;;;4995609;28;20272;-53
2023/04/23 13:27:21;;;;;;;1.60;1.40;;;;;;;;;;4995928;28;20183;-51
2023/04/23 13:29:47;;;;;;;2.70;1.90;;;;;;;;;;4996816;28;20189;-50
2023/04/23 13:32:15;;;;;;;2.65;1.70;;;;;;;;;;4995057;28;20192;-50
2023/04/23 13:34:41;;;;;;;7.82;2.00;;;;;;;;;;4997514;28;20177;-50
2023/04/23 13:37:08;;;;;;;2.30;1.50;;;;;;;;;;4996079;28;20189;-51
2023/04/23 13:39:34;;;;;;;1.90;1.70;;;;;;;;;;4996599;28;20227;-51
2023/04/23 13:42:00;;;;;;;3.38;1.52;;;;;;;;;;4995462;28;20237;-50
2023/04/23 13:44:26;;;;;;;2.90;1.58;;;;;;;;;;4995380;28;20177;-51
2023/04/23 13:46:52;;;;;;;2.83;1.45;;;;;;;;;;4995357;28;20180;-50
2023/04/23 13:49:18;;;;;;;3.00;1.35;;;;;;;;;;4996219;28;20212;-51
2023/04/23 13:51:44;;;;;;;3.25;1.50;;;;;;;;;;4995965;28;20193;-51
2023/04/23 13:54:10;;;;;;;2.88;1.23;;;;;;;;;;4995098;28;20264;-50
2023/04/23 13:56:36;;;;;;;3.78;1.55;;;;;;;;;;4995677;28;20591;-50
2023/04/23 13:59:03;;;;;;;1.30;1.20;;;;;;;;;;4988699;28;20173;-50
2023/04/23 14:01:29;;;;;;;2.50;1.33;;;;;;;;;;4996050;28;20232;-50
2023/04/23 14:03:56;;;;;;;1.52;1.42;;;;;;;;;;4994790;28;20233;-50
2023/04/23 14:06:22;;;;;;;3.25;1.40;;;;;;;;;;4993802;28;20219;-52
2023/04/23 14:08:47;;;;;;;1.10;1.05;;;;;;;;;;4995530;28;20213;-51
2023/04/23 14:11:13;;;;;;;1.63;1.40;;;;;;;;;;4995801;28;20199;-50
2023/04/23 14:13:39;;;;;;;5.63;1.40;;;;;;;;;;4995108;28;20561;-50
2023/04/23 14:16:05;;;;;;;1.20;1.10;;;;;;;;;;4994977;28;20185;-52
2023/04/23 14:18:31;;;;;;;1.33;1.02;;;;;;;;;;4990745;28;20180;-50
2023/04/23 14:20:57;;;;;;;1.33;1.23;;;;;;;;;;4995858;28;20216;-51
2023/04/23 14:23:26;;;;;;;1.95;1.17;;;;;;;;;;4995534;28;20224;-51
2023/04/23 14:25:53;;;;;;;2.28;1.10;;;;;;;;;;4995382;28;20320;-50
2023/04/23 14:28:38;;;;;;;1.27;1.17;;;;;;;;;;4994520;28;20185;-51
2023/04/23 14:31:04;;;;;;;1.50;1.10;;;;;;;;;;4992618;28;20628;-51
2023/04/23 14:33:30;;;;;;;1.48;1.20;;;;;;;;;;4996311;28;20201;-50
2023/04/23 14:35:56;;;;;;;2.22;1.38;;;;;;;;;;4994309;28;20212;-51
2023/04/23 14:38:22;;;;;;;1.20;1.10;;;;;;;;;;4993831;28;20465;-50